createdAt,value
2024-03-20T00:00:23.268Z,99301.80
2024-03-20T00:01:46.994Z,99301.82
2024-03-20T00:02:48.501Z,99302.39
2024-03-20T00:03:50.178Z,99303.68
2024-03-20T00:04:52.079Z,99300.44
2024-03-20T00:05:54.643Z,99304.97
2024-03-20T00:06:56.214Z,99296.45
2024-03-20T00:07:57.821Z,99299.51
2024-03-20T00:09:01.398Z,99296.40
2024-03-20T00:10:03.723Z,99293.73
2024-03-20T00:11:07.313Z,99291.23
2024-03-20T00:12:09.165Z,99289.81
2024-03-20T00:13:10.663Z,99286.44
2024-03-20T00:14:12.204Z,99289.48
2024-03-20T00:15:13.852Z,99274.23
2024-03-20T00:16:15.545Z,99280.48
2024-03-20T00:17:17.172Z,99280.58
2024-03-20T00:18:18.821Z,99284.96
2024-03-20T00:19:20.912Z,99280.73
2024-03-20T00:20:25.391Z,99284.10
2024-03-20T00:21:27.270Z,99285.42
2024-03-20T00:22:30.776Z,99279.08
2024-03-20T00:23:32.387Z,99279.92
2024-03-20T00:24:34.352Z,99279.36
2024-03-20T00:25:35.938Z,99274.85
2024-03-20T00:26:37.447Z,99282.35
2024-03-20T00:27:39.017Z,99281.14
2024-03-20T00:28:40.625Z,99277.64
2024-03-20T00:29:42.302Z,99277.83
2024-03-20T00:30:43.916Z,99265.46
2024-03-20T00:31:45.428Z,99275.05
2024-03-20T00:32:47.041Z,99273.44
2024-03-20T00:33:48.650Z,99276.82
2024-03-20T00:34:50.322Z,99271.11
2024-03-20T00:35:51.844Z,99274.10
2024-03-20T00:36:53.418Z,99273.69
2024-03-20T00:37:55.048Z,99272.34
2024-03-20T00:38:56.643Z,99274.69
2024-03-20T00:39:58.259Z,99268.73
2024-03-20T00:41:00.127Z,99269.71
2024-03-20T00:42:01.704Z,99268.96
2024-03-20T00:43:03.387Z,99263.66
2024-03-20T00:44:05.151Z,99267.30
2024-03-20T00:45:07.125Z,99264.42
2024-03-20T00:46:08.616Z,99251.17
2024-03-20T00:47:10.328Z,99263.14
2024-03-20T00:48:12.129Z,99263.98
2024-03-20T00:49:13.705Z,99263.80
2024-03-20T00:50:15.527Z,99265.02
2024-03-20T00:51:17.179Z,99265.13
2024-03-20T00:52:18.819Z,99263.00
2024-03-20T00:53:20.538Z,99265.02
2024-03-20T00:54:22.149Z,99265.07
2024-03-20T00:55:24.091Z,99262.55
2024-03-20T00:56:25.697Z,99260.92
2024-03-20T00:57:27.406Z,99262.29
2024-03-20T00:58:30.782Z,99262.28
2024-03-20T00:59:32.439Z,99264.27
2024-03-20T01:00:33.988Z,99268.15
2024-03-20T01:01:35.797Z,99270.84
2024-03-20T01:02:37.349Z,99268.61
2024-03-20T01:03:39.036Z,99269.90
2024-03-20T01:04:40.548Z,99272.20
2024-03-20T01:05:42.336Z,99273.42
2024-03-20T01:06:44.793Z,99271.27
2024-03-20T01:07:46.357Z,99271.75
2024-03-20T01:08:47.935Z,99273.96
2024-03-20T01:09:49.473Z,99272.53
2024-03-20T01:10:51.197Z,99272.77
2024-03-20T01:11:52.775Z,99273.58
2024-03-20T01:12:54.322Z,99271.63
2024-03-20T01:13:55.848Z,99275.41
2024-03-20T01:14:57.395Z,99271.83
2024-03-20T01:15:59.492Z,99268.92
2024-03-20T01:17:01.046Z,99270.95
2024-03-20T01:18:03.042Z,99270.27
2024-03-20T01:19:04.544Z,99267.05
2024-03-20T01:20:08.156Z,99266.75
2024-03-20T01:21:10.053Z,99263.02
2024-03-20T01:22:12.183Z,99268.80
2024-03-20T01:23:14.347Z,99264.14
2024-03-20T01:24:15.863Z,99263.23
2024-03-20T01:25:18.044Z,99263.14
2024-03-20T01:26:20.900Z,99267.72
2024-03-20T01:27:22.462Z,99266.32
2024-03-20T01:28:27.921Z,99267.99
2024-03-20T01:29:29.737Z,99265.43
2024-03-20T01:30:31.261Z,99268.48
2024-03-20T01:31:32.874Z,99267.36
2024-03-20T01:32:34.484Z,99269.67
2024-03-20T01:33:36.016Z,99268.98
2024-03-20T01:34:37.744Z,99267.10
2024-03-20T01:35:39.322Z,99265.80
2024-03-20T01:36:40.923Z,99262.08
2024-03-20T01:37:42.459Z,99262.80
2024-03-20T01:38:44.046Z,99256.59
2024-03-20T01:39:45.606Z,99259.05
2024-03-20T01:40:47.130Z,99259.73
2024-03-20T01:41:48.879Z,99261.98
2024-03-20T01:42:54.569Z,99256.26
2024-03-20T01:43:56.193Z,99255.87
2024-03-20T01:45:21.384Z,99253.97
2024-03-20T01:46:35.983Z,99253.94
2024-03-20T01:47:37.530Z,99256.95
2024-03-20T01:48:39.233Z,99251.85
2024-03-20T01:49:41.225Z,99255.09
2024-03-20T01:50:44.415Z,99253.46
2024-03-20T01:51:47.350Z,99256.92
2024-03-20T01:52:56.084Z,99256.94
2024-03-20T01:53:59.436Z,99259.33
2024-03-20T01:55:02.294Z,99259.19
2024-03-20T01:56:04.103Z,99255.94
2024-03-20T01:57:05.784Z,99259.90
2024-03-20T01:58:07.738Z,99263.16
2024-03-20T01:59:10.404Z,99259.77
2024-03-20T02:00:14.019Z,99257.94
2024-03-20T02:01:16.637Z,99260.71
2024-03-20T02:02:18.298Z,99263.50
2024-03-20T02:03:20.246Z,99255.34
2024-03-20T02:04:21.862Z,99265.39
2024-03-20T02:05:23.760Z,99260.83
2024-03-20T02:06:28.420Z,99257.27
2024-03-20T02:07:30.038Z,99254.81
2024-03-20T02:08:31.761Z,99254.35
2024-03-20T02:09:33.352Z,99255.06
2024-03-20T02:10:34.963Z,99260.04
2024-03-20T02:11:36.590Z,99256.00
2024-03-20T02:12:38.637Z,99259.34
2024-03-20T02:13:47.313Z,99256.45
2024-03-20T02:14:48.871Z,99254.66
2024-03-20T02:15:50.470Z,99257.04
2024-03-20T02:16:52.703Z,99256.98
2024-03-20T02:17:54.377Z,99257.25
2024-03-20T02:18:56.744Z,99255.55
2024-03-20T02:19:58.264Z,99255.92
2024-03-20T02:21:06.037Z,99256.42
2024-03-20T02:22:07.558Z,99255.63
2024-03-20T02:23:09.739Z,99254.69
2024-03-20T02:24:11.235Z,99257.55
2024-03-20T02:25:13.005Z,99259.00
2024-03-20T02:26:14.616Z,99255.05
2024-03-20T02:27:16.580Z,99254.15
2024-03-20T02:28:18.307Z,99254.61
2024-03-20T02:29:19.843Z,99257.09
2024-03-20T02:30:21.818Z,99259.33
2024-03-20T02:31:23.437Z,99259.51
2024-03-20T02:32:25.403Z,99255.23
2024-03-20T02:33:27.651Z,99257.51
2024-03-20T02:34:29.304Z,99253.56
2024-03-20T02:35:30.801Z,99258.02
2024-03-20T02:36:32.377Z,99255.00
2024-03-20T02:37:33.999Z,99253.63
2024-03-20T02:38:38.446Z,99253.21
2024-03-20T02:39:39.947Z,99250.98
2024-03-20T02:40:41.430Z,99253.27
2024-03-20T02:41:43.953Z,99254.33
2024-03-20T02:42:45.490Z,99247.32
2024-03-20T02:43:47.096Z,99249.99
2024-03-20T02:44:49.668Z,99248.04
2024-03-20T02:45:51.448Z,99249.32
2024-03-20T02:46:52.949Z,99245.29
2024-03-20T02:47:54.496Z,99248.48
2024-03-20T02:48:56.037Z,99249.05
2024-03-20T02:49:58.244Z,99249.42
2024-03-20T02:50:59.727Z,99249.16
2024-03-20T02:52:01.786Z,99249.13
2024-03-20T02:53:04.672Z,99248.67
2024-03-20T02:54:06.267Z,99246.71
2024-03-20T02:55:08.540Z,99248.58
2024-03-20T02:56:10.330Z,99246.90
2024-03-20T02:57:11.852Z,99249.21
2024-03-20T02:58:13.665Z,99243.77
2024-03-20T02:59:15.243Z,99246.77
2024-03-20T03:00:17.740Z,99243.89
2024-03-20T03:01:19.262Z,99241.93
2024-03-20T03:02:20.781Z,99242.14
2024-03-20T03:03:22.319Z,99245.08
2024-03-20T03:04:24.019Z,99245.71
2024-03-20T03:05:27.438Z,99246.43
2024-03-20T03:06:28.984Z,99246.92
2024-03-20T03:07:31.525Z,99243.95
2024-03-20T03:08:33.376Z,99247.61
2024-03-20T03:09:35.020Z,99248.17
2024-03-20T03:10:36.520Z,99244.39
2024-03-20T03:11:38.092Z,99247.46
2024-03-20T03:12:39.661Z,99247.79
2024-03-20T03:13:42.225Z,99245.30
2024-03-20T03:14:49.281Z,99243.36
2024-03-20T03:15:52.507Z,99242.84
2024-03-20T03:16:54.200Z,99239.56
2024-03-20T03:17:56.008Z,99244.51
2024-03-20T03:18:57.629Z,99245.27
2024-03-20T03:19:59.240Z,99242.58
2024-03-20T03:21:00.823Z,99244.71
2024-03-20T03:22:02.496Z,99243.42
2024-03-20T03:23:04.311Z,99242.80
2024-03-20T03:24:06.270Z,99239.59
2024-03-20T03:25:11.706Z,99235.88
2024-03-20T03:26:13.941Z,99235.95
2024-03-20T03:27:15.582Z,99239.27
2024-03-20T03:28:17.059Z,99239.20
2024-03-20T03:29:18.617Z,99240.27
2024-03-20T03:30:20.182Z,99234.88
2024-03-20T03:31:21.753Z,99238.37
2024-03-20T03:32:23.225Z,99236.11
2024-03-20T03:33:24.789Z,99241.45
2024-03-20T03:34:26.374Z,99239.30
2024-03-20T03:35:28.491Z,99234.52
2024-03-20T03:36:32.438Z,99238.80
2024-03-20T03:37:34.883Z,99239.46
2024-03-20T03:38:36.653Z,99237.39
2024-03-20T03:39:38.190Z,99237.60
2024-03-20T03:40:39.714Z,99231.48
2024-03-20T03:41:41.297Z,99240.24
2024-03-20T03:42:42.896Z,99238.66
2024-03-20T03:43:44.559Z,99236.56
2024-03-20T03:44:46.932Z,99231.77
2024-03-20T03:45:48.631Z,99221.87
2024-03-20T03:46:51.963Z,99231.99
2024-03-20T03:47:53.457Z,99233.55
2024-03-20T03:48:54.950Z,99237.33
2024-03-20T03:49:57.418Z,99235.80
2024-03-20T03:50:59.101Z,99235.36
2024-03-20T03:52:00.784Z,99227.98
2024-03-20T03:53:02.410Z,99230.40
2024-03-20T03:54:03.949Z,99222.78
2024-03-20T03:55:05.801Z,99218.58
2024-03-20T03:56:07.292Z,99230.13
2024-03-20T03:57:08.754Z,99231.52
2024-03-20T03:58:10.794Z,99237.86
2024-03-20T03:59:12.304Z,99234.94
2024-03-20T04:00:15.366Z,99230.24
2024-03-20T04:01:16.939Z,99235.89
2024-03-20T04:02:18.450Z,99228.40
2024-03-20T04:03:23.913Z,99227.60
2024-03-20T04:04:25.465Z,99230.95
2024-03-20T04:05:27.449Z,99232.26
2024-03-20T04:06:29.153Z,99233.33
2024-03-20T04:07:31.556Z,99233.77
2024-03-20T04:08:33.136Z,99238.80
2024-03-20T04:09:34.659Z,99238.77
2024-03-20T04:10:37.490Z,99240.08
2024-03-20T04:11:38.995Z,99237.50
2024-03-20T04:12:40.477Z,99241.35
2024-03-20T04:13:42.650Z,99235.42
2024-03-20T04:14:45.681Z,99235.21
2024-03-20T04:15:47.770Z,99232.41
2024-03-20T04:16:49.239Z,99231.77
2024-03-20T04:17:50.826Z,99230.65
2024-03-20T04:18:52.427Z,99233.27
2024-03-20T04:19:54.279Z,99234.50
2024-03-20T04:20:55.912Z,99232.60
2024-03-20T04:21:58.648Z,99231.92
2024-03-20T04:23:00.216Z,99233.02
2024-03-20T04:24:01.887Z,99232.64
2024-03-20T04:25:04.271Z,99233.85
2024-03-20T04:26:06.063Z,99230.80
2024-03-20T04:27:07.551Z,99233.27
2024-03-20T04:28:10.190Z,99230.34
2024-03-20T04:29:12.000Z,99233.78
2024-03-20T04:30:13.536Z,99230.80
2024-03-20T04:31:15.237Z,99232.02
2024-03-20T04:32:16.730Z,99234.14
2024-03-20T04:33:18.216Z,99229.38
2024-03-20T04:34:19.867Z,99232.13
2024-03-20T04:35:21.500Z,99229.63
2024-03-20T04:36:23.282Z,99227.44
2024-03-20T04:37:24.913Z,99229.52
2024-03-20T04:38:26.490Z,99229.70
2024-03-20T04:39:29.723Z,99227.80
2024-03-20T04:40:31.447Z,99223.63
2024-03-20T04:41:34.021Z,99223.67
2024-03-20T04:42:35.701Z,99224.33
2024-03-20T04:43:37.359Z,99225.03
2024-03-20T04:44:39.983Z,99222.54
2024-03-20T04:45:41.562Z,99221.79
2024-03-20T04:46:43.193Z,99225.12
2024-03-20T04:47:44.769Z,99226.55
2024-03-20T04:48:46.371Z,99220.84
2024-03-20T04:49:47.962Z,99223.84
2024-03-20T04:50:49.484Z,99222.70
2024-03-20T04:51:51.024Z,99225.86
2024-03-20T04:52:52.533Z,99225.98
2024-03-20T04:53:54.040Z,99229.34
2024-03-20T04:54:56.993Z,99223.76
2024-03-20T04:55:58.534Z,99225.76
2024-03-20T04:57:00.080Z,99229.34
2024-03-20T04:58:01.640Z,99230.05
2024-03-20T04:59:03.129Z,99230.88
2024-03-20T05:00:13.975Z,99233.05
2024-03-20T05:01:15.761Z,99216.67
2024-03-20T05:02:17.568Z,99232.86
2024-03-20T05:03:19.063Z,99233.16
2024-03-20T05:04:20.595Z,99234.25
2024-03-20T05:05:22.357Z,99237.23
2024-03-20T05:06:23.961Z,99237.42
2024-03-20T05:07:25.606Z,99234.92
2024-03-20T05:08:27.423Z,99236.10
2024-03-20T05:09:29.067Z,99231.89
2024-03-20T05:10:30.582Z,99228.30
2024-03-20T05:11:32.478Z,99230.42
2024-03-20T05:12:34.940Z,99233.00
2024-03-20T05:13:36.555Z,99233.40
2024-03-20T05:14:38.146Z,99234.17
2024-03-20T05:15:40.139Z,99235.43
2024-03-20T05:16:44.268Z,99237.19
2024-03-20T05:17:46.232Z,99236.95
2024-03-20T05:18:47.712Z,99238.17
2024-03-20T05:19:49.217Z,99239.81
2024-03-20T05:20:50.715Z,99242.70
2024-03-20T05:21:52.287Z,99242.98
2024-03-20T05:22:53.863Z,99245.98
2024-03-20T05:23:55.400Z,99248.09
2024-03-20T05:24:56.944Z,99250.63
2024-03-20T05:25:59.042Z,99249.93
2024-03-20T05:27:00.861Z,99249.38
2024-03-20T05:28:02.633Z,99254.42
2024-03-20T05:29:04.266Z,99256.96
2024-03-20T05:30:06.722Z,99257.39
2024-03-20T05:31:08.357Z,99259.03
2024-03-20T05:32:10.632Z,99257.48
2024-03-20T05:33:12.692Z,99262.87
2024-03-20T05:34:14.198Z,99266.33
2024-03-20T05:35:15.768Z,99265.83
2024-03-20T05:36:17.386Z,99262.10
2024-03-20T05:37:18.899Z,99265.73
2024-03-20T05:38:20.445Z,99261.34
2024-03-20T05:39:21.991Z,99261.45
2024-03-20T05:40:23.971Z,99263.45
2024-03-20T05:41:25.586Z,99264.66
2024-03-20T05:42:27.356Z,99264.41
2024-03-20T05:43:28.961Z,99261.23
2024-03-20T05:44:30.719Z,99260.13
2024-03-20T05:45:32.345Z,99261.60
2024-03-20T05:46:34.437Z,99259.19
2024-03-20T05:47:35.959Z,99261.51
2024-03-20T05:48:42.627Z,99261.11
2024-03-20T05:49:44.364Z,99265.00
2024-03-20T05:50:45.852Z,99267.73
2024-03-20T05:51:48.505Z,99258.37
2024-03-20T05:52:49.993Z,99267.26
2024-03-20T05:53:51.622Z,99263.31
2024-03-20T05:54:53.299Z,99264.14
2024-03-20T05:55:55.429Z,99267.02
2024-03-20T05:56:56.929Z,99262.55
2024-03-20T05:57:58.443Z,99256.69
2024-03-20T05:59:00.018Z,99255.70
2024-03-20T06:00:02.131Z,99257.63
2024-03-20T06:01:06.018Z,99247.02
2024-03-20T06:02:07.613Z,99257.19
2024-03-20T06:03:09.513Z,99260.75
2024-03-20T06:04:11.418Z,99256.85
2024-03-20T06:05:13.378Z,99262.12
2024-03-20T06:06:14.991Z,99257.68
2024-03-20T06:07:16.497Z,99254.83
2024-03-20T06:08:18.045Z,99253.95
2024-03-20T06:09:19.716Z,99254.25
2024-03-20T06:10:21.834Z,99251.98
2024-03-20T06:11:23.463Z,99253.45
2024-03-20T06:12:26.048Z,99257.84
2024-03-20T06:13:28.528Z,99262.31
2024-03-20T06:14:31.055Z,99259.50
2024-03-20T06:15:34.811Z,99261.16
2024-03-20T06:16:37.421Z,99261.89
2024-03-20T06:17:39.175Z,99258.45
2024-03-20T06:18:41.046Z,99258.47
2024-03-20T06:19:42.673Z,99260.44
2024-03-20T06:20:44.275Z,99261.85
2024-03-20T06:21:45.896Z,99263.17
2024-03-20T06:22:47.486Z,99264.81
2024-03-20T06:23:49.118Z,99264.73
2024-03-20T06:24:51.043Z,99268.23
2024-03-20T06:25:52.532Z,99264.94
2024-03-20T06:26:54.061Z,99267.45
2024-03-20T06:27:55.683Z,99256.51
2024-03-20T06:28:57.268Z,99267.09
2024-03-20T06:29:59.097Z,99270.56
2024-03-20T06:31:00.680Z,99271.76
2024-03-20T06:32:02.307Z,99272.64
2024-03-20T06:33:06.288Z,99274.36
2024-03-20T06:34:11.418Z,99274.35
2024-03-20T06:35:13.793Z,99279.92
2024-03-20T06:36:15.530Z,99276.58
2024-03-20T06:37:18.026Z,99276.55
2024-03-20T06:38:19.939Z,99274.06
2024-03-20T06:39:21.539Z,99278.79
2024-03-20T06:40:26.291Z,99273.70
2024-03-20T06:41:28.077Z,99276.27
2024-03-20T06:42:29.659Z,99276.39
2024-03-20T06:43:34.741Z,99275.23
2024-03-20T06:44:36.447Z,99274.17
2024-03-20T06:45:43.329Z,99272.17
2024-03-20T06:46:45.544Z,99275.95
2024-03-20T06:47:47.052Z,99273.31
2024-03-20T06:48:48.663Z,99273.04
2024-03-20T06:49:51.105Z,99272.52
2024-03-20T06:50:52.793Z,99274.88
2024-03-20T06:51:54.332Z,99273.34
2024-03-20T06:52:58.110Z,99274.25
2024-03-20T06:54:01.559Z,99274.39
2024-03-20T06:55:03.407Z,99277.09
2024-03-20T06:56:06.079Z,99281.84
2024-03-20T06:57:09.359Z,99278.42
2024-03-20T06:58:12.033Z,99285.03
2024-03-20T06:59:14.648Z,99284.69
2024-03-20T07:00:19.162Z,99286.30
2024-03-20T07:01:20.852Z,99285.50
2024-03-20T07:02:22.348Z,99285.86
2024-03-20T07:03:24.021Z,99288.19
2024-03-20T07:04:30.505Z,99286.41
2024-03-20T07:05:32.475Z,99282.98
2024-03-20T07:06:34.178Z,99283.12
2024-03-20T07:07:35.765Z,99279.45
2024-03-20T07:08:37.619Z,99284.30
2024-03-20T07:09:39.237Z,99278.91
2024-03-20T07:10:40.741Z,99277.58
2024-03-20T07:11:45.436Z,99276.89
2024-03-20T07:12:48.664Z,99276.15
2024-03-20T07:13:50.250Z,99273.98
2024-03-20T07:14:51.822Z,99274.30
2024-03-20T07:15:53.361Z,99270.05
2024-03-20T07:16:59.651Z,99272.96
2024-03-20T07:18:03.525Z,99266.84
2024-03-20T07:19:05.399Z,99267.71
2024-03-20T07:20:09.714Z,99267.99
2024-03-20T07:21:11.439Z,99261.77
2024-03-20T07:22:15.613Z,99262.35
2024-03-20T07:23:17.339Z,99261.80
2024-03-20T07:24:18.890Z,99262.30
2024-03-20T07:25:22.272Z,99264.17
2024-03-20T07:26:23.813Z,99259.41
2024-03-20T07:27:25.465Z,99256.21
2024-03-20T07:28:27.000Z,99253.85
2024-03-20T07:29:30.122Z,99254.27
2024-03-20T07:30:31.776Z,99257.98
2024-03-20T07:31:38.427Z,99259.70
2024-03-20T07:32:40.605Z,99261.22
2024-03-20T07:33:42.229Z,99262.41
2024-03-20T07:34:44.514Z,99261.56
2024-03-20T07:35:47.619Z,99265.98
2024-03-20T07:36:49.194Z,99264.57
2024-03-20T07:37:54.154Z,99262.41
2024-03-20T07:38:57.121Z,99262.98
2024-03-20T07:39:58.750Z,99268.23
2024-03-20T07:41:00.289Z,99260.95
2024-03-20T07:42:03.778Z,99258.70
2024-03-20T07:43:05.402Z,99259.31
2024-03-20T07:44:06.947Z,99256.91
2024-03-20T07:45:09.158Z,99260.43
2024-03-20T07:46:13.687Z,99261.48
2024-03-20T07:47:15.608Z,99262.70
2024-03-20T07:48:17.158Z,99264.31
2024-03-20T07:49:18.744Z,99264.66
2024-03-20T07:50:20.432Z,99264.98
2024-03-20T07:51:21.949Z,99266.34
2024-03-20T07:52:26.271Z,99266.69
2024-03-20T07:53:29.764Z,99269.64
2024-03-20T07:54:31.370Z,99268.76
2024-03-20T07:55:33.267Z,99268.02
2024-03-20T07:56:34.947Z,99272.78
2024-03-20T07:57:36.619Z,99274.66
2024-03-20T07:58:38.528Z,99279.40
2024-03-20T07:59:40.085Z,99278.27
2024-03-20T08:00:41.661Z,99279.02
2024-03-20T08:01:43.221Z,99281.75
2024-03-20T08:02:45.343Z,99277.58
2024-03-20T08:03:49.425Z,99276.73
2024-03-20T08:04:50.970Z,99277.84
2024-03-20T08:05:52.469Z,99277.93
2024-03-20T08:06:54.761Z,99276.81
2024-03-20T08:07:56.302Z,99274.44
2024-03-20T08:08:57.874Z,99271.98
2024-03-20T08:09:59.437Z,99273.62
2024-03-20T08:11:01.279Z,99274.07
2024-03-20T08:12:03.109Z,99271.96
2024-03-20T08:13:04.765Z,99275.23
2024-03-20T08:14:09.063Z,99272.39
2024-03-20T08:15:11.002Z,99268.98
2024-03-20T08:16:12.593Z,99274.88
2024-03-20T08:17:14.198Z,99263.80
2024-03-20T08:18:16.904Z,99269.07
2024-03-20T08:19:18.816Z,99273.81
2024-03-20T08:20:22.668Z,99272.35
2024-03-20T08:21:24.549Z,99271.58
2024-03-20T08:22:26.798Z,99271.83
2024-03-20T08:23:28.602Z,99274.70
2024-03-20T08:24:30.248Z,99273.45
2024-03-20T08:25:32.170Z,99270.14
2024-03-20T08:26:33.808Z,99270.35
2024-03-20T08:27:36.065Z,99267.54
2024-03-20T08:28:37.698Z,99268.17
2024-03-20T08:29:39.374Z,99268.66
2024-03-20T08:30:40.862Z,99267.94
2024-03-20T08:31:42.613Z,99270.08
2024-03-20T08:32:44.206Z,99266.52
2024-03-20T08:33:46.132Z,99266.92
2024-03-20T08:34:47.903Z,99269.61
2024-03-20T08:35:56.132Z,99271.73
2024-03-20T08:36:57.726Z,99272.27
2024-03-20T08:37:59.200Z,99269.56
2024-03-20T08:39:00.812Z,99266.20
2024-03-20T08:40:03.994Z,99270.83
2024-03-20T08:41:05.976Z,99274.98
2024-03-20T08:42:09.572Z,99274.63
2024-03-20T08:43:19.839Z,99273.52
2024-03-20T08:44:24.837Z,99268.91
2024-03-20T08:45:26.486Z,99270.27
2024-03-20T08:46:28.384Z,99269.88
2024-03-20T08:47:30.739Z,99266.91
2024-03-20T08:48:32.402Z,99267.62
2024-03-20T08:49:37.643Z,99268.98
2024-03-20T08:50:44.701Z,99268.63
2024-03-20T08:51:48.380Z,99268.58
2024-03-20T08:52:50.770Z,99263.54
2024-03-20T08:53:52.335Z,99267.52
2024-03-20T08:54:53.875Z,99267.45
2024-03-20T08:55:56.362Z,99264.67
2024-03-20T08:56:57.897Z,99265.79
2024-03-20T08:57:59.496Z,99273.40
2024-03-20T08:59:01.347Z,99272.14
2024-03-20T09:00:06.875Z,99271.27
2024-03-20T09:01:08.540Z,99271.44
2024-03-20T09:02:10.327Z,99271.30
2024-03-20T09:03:14.639Z,99272.29
2024-03-20T09:04:16.561Z,99272.90
2024-03-20T09:05:18.449Z,99271.63
2024-03-20T09:06:20.109Z,99271.16
2024-03-20T09:07:21.694Z,99273.56
2024-03-20T09:08:23.252Z,99270.34
2024-03-20T09:09:25.078Z,99268.95
2024-03-20T09:10:26.611Z,99271.73
2024-03-20T09:11:29.085Z,99269.23
2024-03-20T09:12:30.934Z,99266.00
2024-03-20T09:13:32.603Z,99265.70
2024-03-20T09:14:34.718Z,99266.20
2024-03-20T09:15:36.321Z,99261.98
2024-03-20T09:16:37.889Z,99264.61
2024-03-20T09:17:39.585Z,99259.48
2024-03-20T09:18:41.964Z,99260.52
2024-03-20T09:19:43.555Z,99261.94
2024-03-20T09:20:45.044Z,99263.27
2024-03-20T09:21:46.873Z,99262.96
2024-03-20T09:22:49.893Z,99259.54
2024-03-20T09:23:51.639Z,99256.86
2024-03-20T09:24:53.152Z,99253.10
2024-03-20T09:25:54.703Z,99252.55
2024-03-20T09:26:56.610Z,99254.35
2024-03-20T09:28:00.459Z,99250.91
2024-03-20T09:29:02.032Z,99249.35
2024-03-20T09:30:04.226Z,99246.61
2024-03-20T09:31:05.823Z,99243.67
2024-03-20T09:32:08.757Z,99243.00
2024-03-20T09:33:11.503Z,99242.64
2024-03-20T09:34:13.091Z,99243.80
2024-03-20T09:35:14.735Z,99232.91
2024-03-20T09:36:16.498Z,99243.70
2024-03-20T09:37:19.900Z,99247.63
2024-03-20T09:38:21.474Z,99247.27
2024-03-20T09:39:23.682Z,99250.48
2024-03-20T09:40:27.107Z,99250.31
2024-03-20T09:41:35.390Z,99245.96
2024-03-20T09:42:39.850Z,99249.35
2024-03-20T09:43:41.834Z,99251.89
2024-03-20T09:44:43.708Z,99247.91
2024-03-20T09:45:45.543Z,99250.91
2024-03-20T09:46:51.263Z,99250.40
2024-03-20T09:47:56.249Z,99246.31
2024-03-20T09:48:57.895Z,99248.52
2024-03-20T09:50:00.293Z,99247.92
2024-03-20T09:51:02.248Z,99247.45
2024-03-20T09:52:05.285Z,99252.45
2024-03-20T09:53:08.816Z,99250.71
2024-03-20T09:54:10.486Z,99248.91
2024-03-20T09:55:17.271Z,99248.20
2024-03-20T09:56:21.759Z,99251.52
2024-03-20T09:57:25.144Z,99248.46
2024-03-20T09:58:27.212Z,99246.30
2024-03-20T09:59:32.251Z,99236.52
2024-03-20T10:00:33.816Z,99247.05
2024-03-20T10:01:35.896Z,99248.61
2024-03-20T10:02:37.439Z,99246.39
2024-03-20T10:03:40.180Z,99246.76
2024-03-20T10:04:49.541Z,99247.10
2024-03-20T10:05:57.335Z,99243.41
2024-03-20T10:06:58.963Z,99244.44
2024-03-20T10:08:00.588Z,99240.60
2024-03-20T10:09:09.987Z,99245.98
2024-03-20T10:10:14.264Z,99239.12
2024-03-20T10:11:16.021Z,99227.51
2024-03-20T10:12:17.963Z,99243.55
2024-03-20T10:13:19.530Z,99241.63
2024-03-20T10:14:22.979Z,99237.59
2024-03-20T10:15:25.102Z,99233.90
2024-03-20T10:16:30.373Z,99233.08
2024-03-20T10:17:34.686Z,99239.70
2024-03-20T10:18:36.419Z,99237.40
2024-03-20T10:19:39.452Z,99226.43
2024-03-20T10:20:40.986Z,99239.09
2024-03-20T10:21:44.634Z,99237.52
2024-03-20T10:22:56.694Z,99239.50
2024-03-20T10:24:00.239Z,99237.45
2024-03-20T10:25:01.848Z,99242.13
2024-03-20T10:26:03.658Z,99242.27
2024-03-20T10:27:08.109Z,99239.59
2024-03-20T10:28:14.894Z,99239.17
2024-03-20T10:29:20.573Z,99236.51
2024-03-20T10:30:31.508Z,99230.15
2024-03-20T10:31:36.032Z,99230.40
2024-03-20T10:32:39.457Z,99235.39
2024-03-20T10:33:44.404Z,99230.02
2024-03-20T10:34:48.785Z,99230.41
2024-03-20T10:35:53.550Z,99225.19
2024-03-20T10:36:56.231Z,99218.71
2024-03-20T10:37:58.700Z,99222.08
2024-03-20T10:39:12.177Z,99224.48
2024-03-20T10:40:22.755Z,99227.02
2024-03-20T10:41:24.978Z,99232.05
2024-03-20T10:42:29.156Z,99227.23
2024-03-20T10:43:30.695Z,99228.33
2024-03-20T10:44:33.222Z,99226.59
2024-03-20T10:45:37.165Z,99227.90
2024-03-20T10:46:40.608Z,99227.31
2024-03-20T10:47:45.352Z,99228.71
2024-03-20T10:48:49.585Z,99230.42
2024-03-20T10:49:51.622Z,99227.14
2024-03-20T10:50:55.174Z,99228.55
2024-03-20T10:51:57.257Z,99226.18
2024-03-20T10:52:59.913Z,99222.55
2024-03-20T10:54:02.354Z,99228.44
2024-03-20T10:55:07.134Z,99226.95
2024-03-20T10:56:21.177Z,99221.28
2024-03-20T10:57:24.253Z,99215.39
2024-03-20T10:58:26.023Z,99217.91
2024-03-20T10:59:32.287Z,99211.60
2024-03-20T11:00:35.071Z,99212.27
2024-03-20T11:01:38.129Z,99210.77
2024-03-20T11:02:39.990Z,99212.86
2024-03-20T11:03:52.408Z,99214.27
2024-03-20T11:04:53.999Z,99213.12
2024-03-20T11:05:55.592Z,99220.09
2024-03-20T11:06:58.810Z,99215.77
2024-03-20T11:08:01.304Z,99212.02
2024-03-20T11:09:06.500Z,99209.96
2024-03-20T11:10:27.730Z,99206.79
2024-03-20T11:11:30.595Z,99215.55
2024-03-20T11:12:36.568Z,99212.22
2024-03-20T11:13:39.112Z,99211.02
2024-03-20T11:14:44.880Z,99210.90
2024-03-20T11:15:52.621Z,99208.12
2024-03-20T11:17:00.496Z,99210.49
2024-03-20T11:18:02.784Z,99209.05
2024-03-20T11:19:07.162Z,99203.24
2024-03-20T11:20:33.310Z,99202.32
2024-03-20T11:21:37.221Z,99202.38
2024-03-20T11:22:38.880Z,99202.34
2024-03-20T11:23:42.774Z,99201.98
2024-03-20T11:24:44.736Z,99203.55
2024-03-20T11:25:46.438Z,99197.98
2024-03-20T11:26:48.241Z,99199.09
2024-03-20T11:27:50.852Z,99198.08
2024-03-20T11:28:52.710Z,99200.13
2024-03-20T11:29:54.278Z,99196.34
2024-03-20T11:30:55.939Z,99200.67
2024-03-20T11:31:57.526Z,99197.34
2024-03-20T11:32:59.178Z,99199.14
2024-03-20T11:34:04.885Z,99196.09
2024-03-20T11:35:11.359Z,99195.89
2024-03-20T11:36:14.690Z,99192.64
2024-03-20T11:37:19.463Z,99195.67
2024-03-20T11:38:29.116Z,99192.30
2024-03-20T11:39:30.761Z,99188.74
2024-03-20T11:40:33.490Z,99187.35
2024-03-20T11:41:38.128Z,99186.96
2024-03-20T11:42:41.207Z,99185.73
2024-03-20T11:43:44.110Z,99186.14
2024-03-20T11:44:45.756Z,99184.55
2024-03-20T11:45:48.010Z,99181.61
2024-03-20T11:46:49.645Z,99177.09
2024-03-20T11:47:52.153Z,99177.77
2024-03-20T11:48:54.161Z,99181.00
2024-03-20T11:49:56.895Z,99173.70
2024-03-20T11:50:58.426Z,99169.48
2024-03-20T11:52:04.225Z,99173.43
2024-03-20T11:53:07.229Z,99172.41
2024-03-20T11:54:09.988Z,99166.67
2024-03-20T11:55:14.579Z,99165.55
2024-03-20T11:56:17.674Z,99166.41
2024-03-20T11:57:20.486Z,99169.81
2024-03-20T11:58:22.084Z,99166.60
2024-03-20T11:59:25.366Z,99167.18
2024-03-20T12:00:27.132Z,99166.42
2024-03-20T12:01:28.982Z,99165.98
2024-03-20T12:02:35.439Z,99164.91
2024-03-20T12:03:38.355Z,99165.23
2024-03-20T12:04:39.916Z,99164.58
2024-03-20T12:05:41.456Z,99165.14
2024-03-20T12:06:42.984Z,99162.86
2024-03-20T12:07:45.129Z,99165.11
2024-03-20T12:08:46.783Z,99158.77
2024-03-20T12:09:48.363Z,99150.96
2024-03-20T12:10:49.873Z,99152.09
2024-03-20T12:11:51.453Z,99148.28
2024-03-20T12:12:53.156Z,99148.90
2024-03-20T12:13:55.981Z,99149.15
2024-03-20T12:15:00.308Z,99149.75